sensor_id;sensor_type;location;lat;lon;timestamp;P1;durP1;ratioP1;P2;durP2;ratioP2
10715;SDS011;5409;42.620;23.316;2023-06-22T00:02:00;6.15;;;5.03;;
10715;SDS011;5409;42.620;23.316;2023-06-22T00:04:27;8.20;;;5.35;;
10715;SDS011;5409;42.620;23.316;2023-06-22T00:06:54;8.73;;;5.07;;
10715;SDS011;5409;42.620;23.316;2023-06-22T00:09:21;5.97;;;5.07;;
10715;SDS011;5409;42.620;23.316;2023-06-22T00:11:47;6.30;;;4.95;;
10715;SDS011;5409;42.620;23.316;2023-06-22T00:14:15;6.15;;;5.10;;
10715;SDS011;5409;42.620;23.316;2023-06-22T00:16:42;8.77;;;5.32;;
10715;SDS011;5409;42.620;23.316;2023-06-22T00:19:09;8.02;;;5.50;;
10715;SDS011;5409;42.620;23.316;2023-06-22T00:21:36;5.80;;;5.20;;
10715;SDS011;5409;42.620;23.316;2023-06-22T00:24:04;9.43;;;6.38;;
10715;SDS011;5409;42.620;23.316;2023-06-22T00:26:31;9.52;;;5.45;;
10715;SDS011;5409;42.620;23.316;2023-06-22T00:28:58;6.28;;;5.28;;
10715;SDS011;5409;42.620;23.316;2023-06-22T00:31:26;6.53;;;5.28;;
10715;SDS011;5409;42.620;23.316;2023-06-22T00:33:53;8.10;;;5.57;;
10715;SDS011;5409;42.620;23.316;2023-06-22T00:36:19;6.85;;;5.80;;
10715;SDS011;5409;42.620;23.316;2023-06-22T00:38:46;6.47;;;5.78;;
10715;SDS011;5409;42.620;23.316;2023-06-22T00:41:15;10.10;;;6.50;;
10715;SDS011;5409;42.620;23.316;2023-06-22T00:43:42;6.00;;;5.40;;
10715;SDS011;5409;42.620;23.316;2023-06-22T00:46:09;5.05;;;4.55;;
10715;SDS011;5409;42.620;23.316;2023-06-22T00:48:37;7.32;;;5.25;;
10715;SDS011;5409;42.620;23.316;2023-06-22T00:51:06;5.57;;;5.05;;
10715;SDS011;5409;42.620;23.316;2023-06-22T00:53:33;6.90;;;5.00;;
10715;SDS011;5409;42.620;23.316;2023-06-22T00:56:03;5.32;;;4.40;;
10715;SDS011;5409;42.620;23.316;2023-06-22T00:58:30;6.60;;;5.93;;
10715;SDS011;5409;42.620;23.316;2023-06-22T01:00:58;4.72;;;4.32;;
10715;SDS011;5409;42.620;23.316;2023-06-22T01:03:24;4.80;;;4.32;;
10715;SDS011;5409;42.620;23.316;2023-06-22T01:05:52;5.40;;;4.90;;
10715;SDS011;5409;42.620;23.316;2023-06-22T01:08:29;6.00;;;5.18;;
10715;SDS011;5409;42.620;23.316;2023-06-22T01:11:00;6.35;;;5.10;;
10715;SDS011;5409;42.620;23.316;2023-06-22T01:13:32;5.95;;;5.28;;
10715;SDS011;5409;42.620;23.316;2023-06-22T01:16:05;6.32;;;5.38;;
10715;SDS011;5409;42.620;23.316;2023-06-22T01:18:36;5.78;;;5.22;;
10715;SDS011;5409;42.620;23.316;2023-06-22T01:21:11;6.93;;;5.70;;
10715;SDS011;5409;42.620;23.316;2023-06-22T01:23:47;8.00;;;5.82;;
10715;SDS011;5409;42.620;23.316;2023-06-22T01:26:22;6.40;;;5.70;;
10715;SDS011;5409;42.620;23.316;2023-06-22T01:28:57;6.20;;;5.10;;
10715;SDS011;5409;42.620;23.316;2023-06-22T01:31:25;6.38;;;5.68;;
10715;SDS011;5409;42.620;23.316;2023-06-22T01:33:55;6.13;;;5.30;;
10715;SDS011;5409;42.620;23.316;2023-06-22T01:36:26;10.32;;;6.45;;
10715;SDS011;5409;42.620;23.316;2023-06-22T01:38:53;6.07;;;5.47;;
10715;SDS011;5409;42.620;23.316;2023-06-22T01:41:21;6.57;;;5.97;;
10715;SDS011;5409;42.620;23.316;2023-06-22T01:43:51;7.97;;;6.07;;
10715;SDS011;5409;42.620;23.316;2023-06-22T01:46:20;9.27;;;6.32;;
10715;SDS011;5409;42.620;23.316;2023-06-22T01:48:47;7.13;;;6.25;;
10715;SDS011;5409;42.620;23.316;2023-06-22T01:51:14;7.30;;;6.53;;
10715;SDS011;5409;42.620;23.316;2023-06-22T01:53:41;5.82;;;5.32;;
10715;SDS011;5409;42.620;23.316;2023-06-22T01:56:08;6.75;;;6.07;;
10715;SDS011;5409;42.620;23.316;2023-06-22T01:58:37;6.55;;;5.82;;
10715;SDS011;5409;42.620;23.316;2023-06-22T02:01:12;8.20;;;6.18;;
10715;SDS011;5409;42.620;23.316;2023-06-22T02:03:46;7.82;;;6.22;;
10715;SDS011;5409;42.620;23.316;2023-06-22T02:06:20;7.10;;;6.28;;
10715;SDS011;5409;42.620;23.316;2023-06-22T02:08:52;7.15;;;6.45;;
10715;SDS011;5409;42.620;23.316;2023-06-22T02:11:23;8.38;;;6.70;;
10715;SDS011;5409;42.620;23.316;2023-06-22T02:13:53;8.55;;;6.35;;
10715;SDS011;5409;42.620;23.316;2023-06-22T02:16:20;7.28;;;6.32;;
10715;SDS011;5409;42.620;23.316;2023-06-22T02:18:48;7.68;;;6.95;;
10715;SDS011;5409;42.620;23.316;2023-06-22T02:21:17;7.20;;;6.30;;
10715;SDS011;5409;42.620;23.316;2023-06-22T02:23:43;7.35;;;6.65;;
10715;SDS011;5409;42.620;23.316;2023-06-22T02:26:13;9.45;;;7.38;;
10715;SDS011;5409;42.620;23.316;2023-06-22T02:28:42;7.60;;;6.80;;
10715;SDS011;5409;42.620;23.316;2023-06-22T02:31:09;8.27;;;6.32;;
10715;SDS011;5409;42.620;23.316;2023-06-22T02:33:36;7.50;;;6.80;;
10715;SDS011;5409;42.620;23.316;2023-06-22T02:36:04;7.45;;;6.65;;
10715;SDS011;5409;42.620;23.316;2023-06-22T02:38:34;7.93;;;7.10;;
10715;SDS011;5409;42.620;23.316;2023-06-22T02:41:01;8.52;;;6.80;;
10715;SDS011;5409;42.620;23.316;2023-06-22T02:43:28;9.25;;;7.03;;
10715;SDS011;5409;42.620;23.316;2023-06-22T02:45:55;9.48;;;7.03;;
10715;SDS011;5409;42.620;23.316;2023-06-22T02:48:22;7.65;;;6.95;;
10715;SDS011;5409;42.620;23.316;2023-06-22T02:50:48;8.15;;;7.10;;
10715;SDS011;5409;42.620;23.316;2023-06-22T02:53:16;7.78;;;6.97;;
10715;SDS011;5409;42.620;23.316;2023-06-22T02:55:43;7.90;;;7.13;;
10715;SDS011;5409;42.620;23.316;2023-06-22T02:58:10;8.27;;;6.63;;
10715;SDS011;5409;42.620;23.316;2023-06-22T03:00:36;8.27;;;6.70;;
10715;SDS011;5409;42.620;23.316;2023-06-22T03:03:04;7.75;;;6.97;;
10715;SDS011;5409;42.620;23.316;2023-06-22T03:05:31;7.07;;;6.30;;
10715;SDS011;5409;42.620;23.316;2023-06-22T03:08:00;9.30;;;6.70;;
10715;SDS011;5409;42.620;23.316;2023-06-22T03:10:28;7.57;;;6.07;;
10715;SDS011;5409;42.620;23.316;2023-06-22T03:12:55;8.85;;;7.40;;
10715;SDS011;5409;42.620;23.316;2023-06-22T03:15:22;8.63;;;6.63;;
10715;SDS011;5409;42.620;23.316;2023-06-22T03:17:48;10.50;;;6.85;;
10715;SDS011;5409;42.620;23.316;2023-06-22T03:20:15;8.30;;;7.50;;
10715;SDS011;5409;42.620;23.316;2023-06-22T03:22:42;11.23;;;7.45;;
10715;SDS011;5409;42.620;23.316;2023-06-22T03:25:09;8.18;;;7.32;;
10715;SDS011;5409;42.620;23.316;2023-06-22T03:27:39;8.98;;;7.18;;
10715;SDS011;5409;42.620;23.316;2023-06-22T03:30:07;8.07;;;7.28;;
10715;SDS011;5409;42.620;23.316;2023-06-22T03:32:35;7.88;;;7.18;;
10715;SDS011;5409;42.620;23.316;2023-06-22T03:35:02;8.90;;;8.02;;
10715;SDS011;5409;42.620;23.316;2023-06-22T03:37:29;9.18;;;7.13;;
10715;SDS011;5409;42.620;23.316;2023-06-22T03:39:55;9.43;;;7.57;;
10715;SDS011;5409;42.620;23.316;2023-06-22T03:42:22;8.85;;;7.88;;
10715;SDS011;5409;42.620;23.316;2023-06-22T03:44:50;7.07;;;6.15;;
10715;SDS011;5409;42.620;23.316;2023-06-22T03:47:17;8.48;;;7.15;;
10715;SDS011;5409;42.620;23.316;2023-06-22T03:49:44;8.20;;;7.15;;
10715;SDS011;5409;42.620;23.316;2023-06-22T03:52:11;7.65;;;6.93;;
10715;SDS011;5409;42.620;23.316;2023-06-22T03:54:37;8.90;;;8.05;;
10715;SDS011;5409;42.620;23.316;2023-06-22T03:57:04;8.82;;;7.50;;
10715;SDS011;5409;42.620;23.316;2023-06-22T03:59:31;9.07;;;7.57;;
10715;SDS011;5409;42.620;23.316;2023-06-22T04:02:00;9.43;;;8.32;;
10715;SDS011;5409;42.620;23.316;2023-06-22T04:04:27;8.57;;;7.78;;
10715;SDS011;5409;42.620;23.316;2023-06-22T04:06:54;10.75;;;8.55;;
10715;SDS011;5409;42.620;23.316;2023-06-22T04:09:20;11.23;;;8.05;;
10715;SDS011;5409;42.620;23.316;2023-06-22T04:11:47;11.00;;;7.97;;
10715;SDS011;5409;42.620;23.316;2023-06-22T04:14:14;9.00;;;7.75;;
10715;SDS011;5409;42.620;23.316;2023-06-22T04:16:41;9.77;;;8.50;;
10715;SDS011;5409;42.620;23.316;2023-06-22T04:19:09;9.00;;;8.00;;
10715;SDS011;5409;42.620;23.316;2023-06-22T04:21:41;8.88;;;7.80;;
10715;SDS011;5409;42.620;23.316;2023-06-22T04:24:08;8.95;;;8.02;;
10715;SDS011;5409;42.620;23.316;2023-06-22T04:26:34;11.95;;;8.88;;
10715;SDS011;5409;42.620;23.316;2023-06-22T04:29:02;9.93;;;8.80;;
10715;SDS011;5409;42.620;23.316;2023-06-22T04:31:30;11.18;;;8.45;;
10715;SDS011;5409;42.620;23.316;2023-06-22T04:34:02;9.07;;;7.75;;
10715;SDS011;5409;42.620;23.316;2023-06-22T04:36:33;11.48;;;8.25;;
10715;SDS011;5409;42.620;23.316;2023-06-22T04:39:03;9.05;;;8.07;;
10715;SDS011;5409;42.620;23.316;2023-06-22T04:41:31;8.23;;;7.32;;
10715;SDS011;5409;42.620;23.316;2023-06-22T04:44:07;8.07;;;7.28;;
10715;SDS011;5409;42.620;23.316;2023-06-22T04:46:34;8.45;;;7.65;;
10715;SDS011;5409;42.620;23.316;2023-06-22T04:49:03;12.38;;;8.73;;
10715;SDS011;5409;42.620;23.316;2023-06-22T04:51:40;9.65;;;8.23;;
10715;SDS011;5409;42.620;23.316;2023-06-22T04:54:07;8.15;;;7.30;;
10715;SDS011;5409;42.620;23.316;2023-06-22T04:56:35;8.43;;;7.60;;
10715;SDS011;5409;42.620;23.316;2023-06-22T04:59:02;9.60;;;7.88;;
10715;SDS011;5409;42.620;23.316;2023-06-22T05:01:29;11.93;;;9.98;;
10715;SDS011;5409;42.620;23.316;2023-06-22T05:03:57;12.18;;;9.90;;
10715;SDS011;5409;42.620;23.316;2023-06-22T05:06:26;10.20;;;9.13;;
10715;SDS011;5409;42.620;23.316;2023-06-22T05:08:54;9.50;;;8.27;;
10715;SDS011;5409;42.620;23.316;2023-06-22T05:11:23;10.68;;;8.73;;
10715;SDS011;5409;42.620;23.316;2023-06-22T05:13:50;10.70;;;9.00;;
10715;SDS011;5409;42.620;23.316;2023-06-22T05:16:17;11.50;;;9.27;;
10715;SDS011;5409;42.620;23.316;2023-06-22T05:18:49;12.05;;;9.23;;
10715;SDS011;5409;42.620;23.316;2023-06-22T05:21:19;10.35;;;9.25;;
10715;SDS011;5409;42.620;23.316;2023-06-22T05:23:47;13.52;;;9.13;;
10715;SDS011;5409;42.620;23.316;2023-06-22T05:26:16;10.70;;;9.60;;
10715;SDS011;5409;42.620;23.316;2023-06-22T05:28:43;10.93;;;8.77;;
10715;SDS011;5409;42.620;23.316;2023-06-22T05:31:11;11.27;;;9.57;;
10715;SDS011;5409;42.620;23.316;2023-06-22T05:33:38;12.68;;;9.02;;
10715;SDS011;5409;42.620;23.316;2023-06-22T05:36:05;13.48;;;9.55;;
10715;SDS011;5409;42.620;23.316;2023-06-22T05:38:32;9.82;;;8.80;;
10715;SDS011;5409;42.620;23.316;2023-06-22T05:40:58;12.70;;;9.35;;
10715;SDS011;5409;42.620;23.316;2023-06-22T05:43:26;15.70;;;9.60;;
10715;SDS011;5409;42.620;23.316;2023-06-22T05:45:53;12.55;;;10.10;;
10715;SDS011;5409;42.620;23.316;2023-06-22T05:48:20;12.82;;;10.50;;
10715;SDS011;5409;42.620;23.316;2023-06-22T05:50:46;15.02;;;10.13;;
10715;SDS011;5409;42.620;23.316;2023-06-22T05:53:13;16.23;;;10.82;;
10715;SDS011;5409;42.620;23.316;2023-06-22T05:55:40;15.93;;;10.02;;
10715;SDS011;5409;42.620;23.316;2023-06-22T05:58:07;14.05;;;9.57;;
10715;SDS011;5409;42.620;23.316;2023-06-22T06:00:35;12.40;;;11.00;;
10715;SDS011;5409;42.620;23.316;2023-06-22T06:03:02;13.30;;;10.40;;
10715;SDS011;5409;42.620;23.316;2023-06-22T06:05:29;13.45;;;10.05;;
10715;SDS011;5409;42.620;23.316;2023-06-22T06:07:56;14.10;;;9.52;;
10715;SDS011;5409;42.620;23.316;2023-06-22T06:10:23;13.77;;;10.93;;
10715;SDS011;5409;42.620;23.316;2023-06-22T06:12:50;13.00;;;9.65;;
10715;SDS011;5409;42.620;23.316;2023-06-22T06:15:17;14.95;;;10.15;;
10715;SDS011;5409;42.620;23.316;2023-06-22T06:17:48;14.30;;;10.35;;
10715;SDS011;5409;42.620;23.316;2023-06-22T06:20:15;11.35;;;9.68;;
10715;SDS011;5409;42.620;23.316;2023-06-22T06:22:42;16.80;;;10.10;;
10715;SDS011;5409;42.620;23.316;2023-06-22T06:25:09;13.75;;;9.93;;
10715;SDS011;5409;42.620;23.316;2023-06-22T06:27:41;18.50;;;9.38;;
10715;SDS011;5409;42.620;23.316;2023-06-22T06:30:08;15.07;;;9.75;;
10715;SDS011;5409;42.620;23.316;2023-06-22T06:32:36;13.10;;;9.55;;
10715;SDS011;5409;42.620;23.316;2023-06-22T06:35:05;12.98;;;9.00;;
10715;SDS011;5409;42.620;23.316;2023-06-22T06:37:35;11.35;;;8.85;;
10715;SDS011;5409;42.620;23.316;2023-06-22T06:40:02;11.07;;;9.35;;
10715;SDS011;5409;42.620;23.316;2023-06-22T06:42:32;19.15;;;9.70;;
10715;SDS011;5409;42.620;23.316;2023-06-22T06:44:58;15.57;;;9.70;;
10715;SDS011;5409;42.620;23.316;2023-06-22T06:47:25;17.95;;;9.10;;
10715;SDS011;5409;42.620;23.316;2023-06-22T06:49:52;18.40;;;9.68;;
10715;SDS011;5409;42.620;23.316;2023-06-22T06:52:20;14.27;;;9.70;;
10715;SDS011;5409;42.620;23.316;2023-06-22T06:54:46;13.07;;;9.18;;
10715;SDS011;5409;42.620;23.316;2023-06-22T06:57:13;13.18;;;8.73;;
10715;SDS011;5409;42.620;23.316;2023-06-22T06:59:40;11.45;;;8.63;;
10715;SDS011;5409;42.620;23.316;2023-06-22T07:02:07;15.63;;;8.82;;
10715;SDS011;5409;42.620;23.316;2023-06-22T07:04:34;10.80;;;8.75;;
10715;SDS011;5409;42.620;23.316;2023-06-22T07:07:01;13.82;;;8.35;;
10715;SDS011;5409;42.620;23.316;2023-06-22T07:09:29;14.15;;;8.88;;
10715;SDS011;5409;42.620;23.316;2023-06-22T07:11:56;12.13;;;9.55;;
10715;SDS011;5409;42.620;23.316;2023-06-22T07:14:23;15.90;;;9.27;;
10715;SDS011;5409;42.620;23.316;2023-06-22T07:16:49;10.90;;;8.63;;
10715;SDS011;5409;42.620;23.316;2023-06-22T07:19:16;11.65;;;8.68;;
10715;SDS011;5409;42.620;23.316;2023-06-22T07:21:51;10.45;;;8.02;;
10715;SDS011;5409;42.620;23.316;2023-06-22T07:24:17;14.00;;;8.43;;
10715;SDS011;5409;42.620;23.316;2023-06-22T07:26:46;12.88;;;8.40;;
10715;SDS011;5409;42.620;23.316;2023-06-22T07:29:13;16.77;;;9.38;;
10715;SDS011;5409;42.620;23.316;2023-06-22T07:31:40;15.38;;;8.60;;
10715;SDS011;5409;42.620;23.316;2023-06-22T07:34:06;11.50;;;8.85;;
10715;SDS011;5409;42.620;23.316;2023-06-22T07:36:33;9.15;;;7.95;;
10715;SDS011;5409;42.620;23.316;2023-06-22T07:39:00;14.40;;;9.55;;
10715;SDS011;5409;42.620;23.316;2023-06-22T07:41:27;12.98;;;7.90;;
10715;SDS011;5409;42.620;23.316;2023-06-22T07:43:55;9.45;;;7.97;;
10715;SDS011;5409;42.620;23.316;2023-06-22T07:46:22;11.45;;;8.18;;
10715;SDS011;5409;42.620;23.316;2023-06-22T07:48:49;14.40;;;8.65;;
10715;SDS011;5409;42.620;23.316;2023-06-22T07:51:16;13.02;;;8.55;;
10715;SDS011;5409;42.620;23.316;2023-06-22T07:53:43;10.88;;;8.88;;
10715;SDS011;5409;42.620;23.316;2023-06-22T07:56:10;18.17;;;8.93;;
10715;SDS011;5409;42.620;23.316;2023-06-22T07:58:37;12.38;;;8.90;;
10715;SDS011;5409;42.620;23.316;2023-06-22T08:01:05;11.07;;;9.93;;
10715;SDS011;5409;42.620;23.316;2023-06-22T08:03:32;13.40;;;9.18;;
10715;SDS011;5409;42.620;23.316;2023-06-22T08:05:59;12.65;;;10.18;;
10715;SDS011;5409;42.620;23.316;2023-06-22T08:08:25;13.10;;;10.15;;
10715;SDS011;5409;42.620;23.316;2023-06-22T08:10:52;10.73;;;9.27;;
10715;SDS011;5409;42.620;23.316;2023-06-22T08:13:19;14.60;;;9.43;;
10715;SDS011;5409;42.620;23.316;2023-06-22T08:15:45;12.07;;;9.48;;
10715;SDS011;5409;42.620;23.316;2023-06-22T08:18:14;12.57;;;9.35;;
10715;SDS011;5409;42.620;23.316;2023-06-22T08:20:41;12.20;;;9.05;;
10715;SDS011;5409;42.620;23.316;2023-06-22T08:23:08;9.95;;;8.93;;
10715;SDS011;5409;42.620;23.316;2023-06-22T08:25:34;12.05;;;8.90;;
10715;SDS011;5409;42.620;23.316;2023-06-22T08:28:02;10.50;;;8.60;;
10715;SDS011;5409;42.620;23.316;2023-06-22T08:30:30;11.88;;;8.63;;
10715;SDS011;5409;42.620;23.316;2023-06-22T08:32:56;12.43;;;8.32;;
10715;SDS011;5409;42.620;23.316;2023-06-22T08:35:25;11.65;;;8.52;;
10715;SDS011;5409;42.620;23.316;2023-06-22T08:37:51;10.00;;;7.78;;
10715;SDS011;5409;42.620;23.316;2023-06-22T08:40:20;8.85;;;7.65;;
10715;SDS011;5409;42.620;23.316;2023-06-22T08:42:48;8.88;;;7.97;;
10715;SDS011;5409;42.620;23.316;2023-06-22T08:45:15;13.60;;;8.43;;
10715;SDS011;5409;42.620;23.316;2023-06-22T08:47:42;8.23;;;7.35;;
10715;SDS011;5409;42.620;23.316;2023-06-22T08:50:09;9.00;;;8.00;;
10715;SDS011;5409;42.620;23.316;2023-06-22T08:52:38;9.23;;;8.00;;
10715;SDS011;5409;42.620;23.316;2023-06-22T08:55:07;10.93;;;8.43;;
10715;SDS011;5409;42.620;23.316;2023-06-22T08:57:34;9.05;;;8.05;;
10715;SDS011;5409;42.620;23.316;2023-06-22T09:00:02;11.38;;;8.15;;
10715;SDS011;5409;42.620;23.316;2023-06-22T09:02:32;11.98;;;8.95;;
10715;SDS011;5409;42.620;23.316;2023-06-22T09:04:59;8.90;;;8.07;;
10715;SDS011;5409;42.620;23.316;2023-06-22T09:07:29;8.98;;;7.03;;
10715;SDS011;5409;42.620;23.316;2023-06-22T09:09:57;15.18;;;7.85;;
10715;SDS011;5409;42.620;23.316;2023-06-22T09:12:24;11.63;;;8.43;;
10715;SDS011;5409;42.620;23.316;2023-06-22T09:14:52;9.25;;;8.18;;
10715;SDS011;5409;42.620;23.316;2023-06-22T09:17:19;11.93;;;8.27;;
10715;SDS011;5409;42.620;23.316;2023-06-22T09:19:46;10.52;;;8.68;;
10715;SDS011;5409;42.620;23.316;2023-06-22T09:22:13;12.32;;;8.23;;
10715;SDS011;5409;42.620;23.316;2023-06-22T09:24:40;10.55;;;7.78;;
10715;SDS011;5409;42.620;23.316;2023-06-22T09:27:08;12.35;;;8.40;;
10715;SDS011;5409;42.620;23.316;2023-06-22T09:29:35;9.02;;;8.05;;
10715;SDS011;5409;42.620;23.316;2023-06-22T09:32:02;8.32;;;7.43;;
10715;SDS011;5409;42.620;23.316;2023-06-22T09:34:29;10.50;;;7.68;;
10715;SDS011;5409;42.620;23.316;2023-06-22T09:36:56;9.95;;;7.32;;
10715;SDS011;5409;42.620;23.316;2023-06-22T09:39:25;8.70;;;7.80;;
10715;SDS011;5409;42.620;23.316;2023-06-22T09:41:52;8.25;;;7.45;;
10715;SDS011;5409;42.620;23.316;2023-06-22T09:44:20;9.32;;;7.07;;
10715;SDS011;5409;42.620;23.316;2023-06-22T09:46:47;7.90;;;7.20;;
10715;SDS011;5409;42.620;23.316;2023-06-22T09:49:13;7.82;;;7.13;;
10715;SDS011;5409;42.620;23.316;2023-06-22T09:51:40;10.07;;;7.72;;
10715;SDS011;5409;42.620;23.316;2023-06-22T09:54:07;9.25;;;7.32;;
10715;SDS011;5409;42.620;23.316;2023-06-22T09:56:33;7.57;;;6.80;;
10715;SDS011;5409;42.620;23.316;2023-06-22T09:59:02;7.60;;;6.90;;
10715;SDS011;5409;42.620;23.316;2023-06-22T10:01:30;8.30;;;6.68;;
10715;SDS011;5409;42.620;23.316;2023-06-22T10:03:57;9.27;;;7.10;;
10715;SDS011;5409;42.620;23.316;2023-06-22T10:06:24;7.53;;;6.38;;
10715;SDS011;5409;42.620;23.316;2023-06-22T10:08:51;8.80;;;5.78;;
10715;SDS011;5409;42.620;23.316;2023-06-22T10:11:18;5.80;;;5.30;;
10715;SDS011;5409;42.620;23.316;2023-06-22T10:13:44;6.78;;;6.07;;
10715;SDS011;5409;42.620;23.316;2023-06-22T10:16:11;8.13;;;5.90;;
10715;SDS011;5409;42.620;23.316;2023-06-22T10:18:39;8.20;;;6.10;;
10715;SDS011;5409;42.620;23.316;2023-06-22T10:21:06;6.88;;;6.18;;
10715;SDS011;5409;42.620;23.316;2023-06-22T10:23:33;8.27;;;6.07;;
10715;SDS011;5409;42.620;23.316;2023-06-22T10:25:59;7.07;;;6.45;;
10715;SDS011;5409;42.620;23.316;2023-06-22T10:28:26;8.05;;;6.50;;
10715;SDS011;5409;42.620;23.316;2023-06-22T10:30:53;7.05;;;6.45;;
10715;SDS011;5409;42.620;23.316;2023-06-22T10:33:19;8.88;;;6.20;;
10715;SDS011;5409;42.620;23.316;2023-06-22T10:35:47;16.40;;;6.90;;
10715;SDS011;5409;42.620;23.316;2023-06-22T10:38:14;8.32;;;6.35;;
10715;SDS011;5409;42.620;23.316;2023-06-22T10:40:41;6.90;;;6.05;;
10715;SDS011;5409;42.620;23.316;2023-06-22T10:43:08;8.00;;;6.10;;
10715;SDS011;5409;42.620;23.316;2023-06-22T10:45:34;10.60;;;6.40;;
10715;SDS011;5409;42.620;23.316;2023-06-22T10:48:01;6.55;;;5.95;;
10715;SDS011;5409;42.620;23.316;2023-06-22T10:50:28;6.78;;;6.10;;
10715;SDS011;5409;42.620;23.316;2023-06-22T10:52:57;7.57;;;6.20;;
10715;SDS011;5409;42.620;23.316;2023-06-22T10:55:24;7.15;;;6.45;;
10715;SDS011;5409;42.620;23.316;2023-06-22T10:57:50;6.80;;;6.10;;
10715;SDS011;5409;42.620;23.316;2023-06-22T11:00:17;6.93;;;6.32;;
10715;SDS011;5409;42.620;23.316;2023-06-22T11:02:44;7.38;;;6.35;;
10715;SDS011;5409;42.620;23.316;2023-06-22T11:05:11;7.13;;;6.43;;
10715;SDS011;5409;42.620;23.316;2023-06-22T11:07:37;7.25;;;6.55;;
10715;SDS011;5409;42.620;23.316;2023-06-22T11:10:09;8.93;;;6.60;;
10715;SDS011;5409;42.620;23.316;2023-06-22T11:12:36;12.85;;;7.47;;
10715;SDS011;5409;42.620;23.316;2023-06-22T11:15:03;7.97;;;6.72;;
10715;SDS011;5409;42.620;23.316;2023-06-22T11:17:30;7.20;;;6.55;;
10715;SDS011;5409;42.620;23.316;2023-06-22T11:19:57;8.98;;;7.07;;
10715;SDS011;5409;42.620;23.316;2023-06-22T11:22:25;6.97;;;6.30;;
10715;SDS011;5409;42.620;23.316;2023-06-22T11:24:52;8.88;;;5.97;;
10715;SDS011;5409;42.620;23.316;2023-06-22T11:27:20;7.57;;;6.20;;
10715;SDS011;5409;42.620;23.316;2023-06-22T11:29:46;9.73;;;6.82;;
10715;SDS011;5409;42.620;23.316;2023-06-22T11:32:13;7.50;;;6.70;;
10715;SDS011;5409;42.620;23.316;2023-06-22T11:34:40;9.38;;;7.03;;
10715;SDS011;5409;42.620;23.316;2023-06-22T11:37:07;6.60;;;5.90;;
10715;SDS011;5409;42.620;23.316;2023-06-22T11:39:33;10.02;;;5.93;;
10715;SDS011;5409;42.620;23.316;2023-06-22T11:42:00;9.43;;;6.63;;
10715;SDS011;5409;42.620;23.316;2023-06-22T11:44:28;7.57;;;6.28;;
10715;SDS011;5409;42.620;23.316;2023-06-22T11:46:55;8.40;;;7.07;;
10715;SDS011;5409;42.620;23.316;2023-06-22T11:49:21;7.22;;;6.50;;
10715;SDS011;5409;42.620;23.316;2023-06-22T11:51:48;8.32;;;6.68;;
10715;SDS011;5409;42.620;23.316;2023-06-22T11:54:15;8.82;;;6.97;;
10715;SDS011;5409;42.620;23.316;2023-06-22T11:56:43;7.82;;;7.03;;
10715;SDS011;5409;42.620;23.316;2023-06-22T11:59:09;8.57;;;6.78;;
10715;SDS011;5409;42.620;23.316;2023-06-22T12:01:38;7.72;;;6.28;;
10715;SDS011;5409;42.620;23.316;2023-06-22T12:04:04;9.57;;;7.03;;
10715;SDS011;5409;42.620;23.316;2023-06-22T12:06:31;8.07;;;6.80;;
10715;SDS011;5409;42.620;23.316;2023-06-22T12:09:00;8.35;;;7.20;;
10715;SDS011;5409;42.620;23.316;2023-06-22T12:11:29;7.47;;;6.43;;
10715;SDS011;5409;42.620;23.316;2023-06-22T12:13:56;10.80;;;5.80;;
10715;SDS011;5409;42.620;23.316;2023-06-22T12:16:26;8.05;;;6.15;;
10715;SDS011;5409;42.620;23.316;2023-06-22T12:18:54;6.90;;;6.20;;
10715;SDS011;5409;42.620;23.316;2023-06-22T12:21:21;10.80;;;6.53;;
10715;SDS011;5409;42.620;23.316;2023-06-22T12:23:48;7.95;;;6.30;;
10715;SDS011;5409;42.620;23.316;2023-06-22T12:26:15;11.05;;;6.25;;
10715;SDS011;5409;42.620;23.316;2023-06-22T12:28:42;8.23;;;6.35;;
10715;SDS011;5409;42.620;23.316;2023-06-22T12:31:08;7.32;;;6.63;;
10715;SDS011;5409;42.620;23.316;2023-06-22T12:33:35;8.45;;;7.05;;
10715;SDS011;5409;42.620;23.316;2023-06-22T12:36:03;8.30;;;6.72;;
10715;SDS011;5409;42.620;23.316;2023-06-22T12:38:31;7.97;;;7.18;;
10715;SDS011;5409;42.620;23.316;2023-06-22T12:40:57;8.63;;;7.07;;
10715;SDS011;5409;42.620;23.316;2023-06-22T12:43:24;7.97;;;7.18;;
10715;SDS011;5409;42.620;23.316;2023-06-22T12:45:51;14.48;;;8.00;;
10715;SDS011;5409;42.620;23.316;2023-06-22T12:48:18;11.63;;;8.82;;
10715;SDS011;5409;42.620;23.316;2023-06-22T12:50:45;12.82;;;10.10;;
10715;SDS011;5409;42.620;23.316;2023-06-22T12:53:14;15.95;;;10.90;;
10715;SDS011;5409;42.620;23.316;2023-06-22T12:55:41;15.27;;;10.85;;
10715;SDS011;5409;42.620;23.316;2023-06-22T12:58:07;13.38;;;11.40;;
10715;SDS011;5409;42.620;23.316;2023-06-22T13:00:34;12.50;;;10.90;;
10715;SDS011;5409;42.620;23.316;2023-06-22T13:03:01;11.65;;;10.45;;
10715;SDS011;5409;42.620;23.316;2023-06-22T13:05:28;11.40;;;10.20;;
10715;SDS011;5409;42.620;23.316;2023-06-22T13:07:55;12.20;;;9.05;;
10715;SDS011;5409;42.620;23.316;2023-06-22T13:10:23;9.93;;;8.55;;
10715;SDS011;5409;42.620;23.316;2023-06-22T13:12:50;11.05;;;8.82;;
10715;SDS011;5409;42.620;23.316;2023-06-22T13:15:17;13.20;;;9.68;;
10715;SDS011;5409;42.620;23.316;2023-06-22T13:17:44;13.68;;;9.95;;
10715;SDS011;5409;42.620;23.316;2023-06-22T13:20:10;11.70;;;9.63;;
10715;SDS011;5409;42.620;23.316;2023-06-22T13:22:37;9.77;;;8.88;;
10715;SDS011;5409;42.620;23.316;2023-06-22T13:25:07;10.55;;;9.55;;
10715;SDS011;5409;42.620;23.316;2023-06-22T13:27:38;10.35;;;8.80;;
10715;SDS011;5409;42.620;23.316;2023-06-22T13:30:05;11.30;;;9.20;;
10715;SDS011;5409;42.620;23.316;2023-06-22T13:32:33;10.88;;;9.77;;
10715;SDS011;5409;42.620;23.316;2023-06-22T13:35:00;11.77;;;10.57;;
10715;SDS011;5409;42.620;23.316;2023-06-22T13:37:26;11.82;;;9.30;;
10715;SDS011;5409;42.620;23.316;2023-06-22T13:39:53;11.65;;;10.45;;
10715;SDS011;5409;42.620;23.316;2023-06-22T13:42:21;14.15;;;10.20;;
10715;SDS011;5409;42.620;23.316;2023-06-22T13:44:49;11.77;;;10.57;;
10715;SDS011;5409;42.620;23.316;2023-06-22T13:47:16;12.05;;;9.88;;
10715;SDS011;5409;42.620;23.316;2023-06-22T13:49:42;12.00;;;10.80;;
10715;SDS011;5409;42.620;23.316;2023-06-22T13:52:09;11.23;;;10.13;;
10715;SDS011;5409;42.620;23.316;2023-06-22T13:54:37;11.13;;;9.93;;
10715;SDS011;5409;42.620;23.316;2023-06-22T13:57:04;12.63;;;9.95;;
10715;SDS011;5409;42.620;23.316;2023-06-22T13:59:32;9.60;;;8.55;;
10715;SDS011;5409;42.620;23.316;2023-06-22T14:02:00;10.07;;;8.98;;
10715;SDS011;5409;42.620;23.316;2023-06-22T14:04:26;9.98;;;8.80;;
10715;SDS011;5409;42.620;23.316;2023-06-22T14:06:53;9.48;;;8.55;;
10715;SDS011;5409;42.620;23.316;2023-06-22T14:09:21;9.77;;;8.52;;
10715;SDS011;5409;42.620;23.316;2023-06-22T14:11:48;9.95;;;8.95;;
10715;SDS011;5409;42.620;23.316;2023-06-22T14:14:14;10.30;;;8.65;;
10715;SDS011;5409;42.620;23.316;2023-06-22T14:16:41;10.77;;;8.30;;
10715;SDS011;5409;42.620;23.316;2023-06-22T14:19:09;10.82;;;8.05;;
10715;SDS011;5409;42.620;23.316;2023-06-22T14:21:36;8.32;;;7.53;;
10715;SDS011;5409;42.620;23.316;2023-06-22T14:24:03;9.30;;;8.35;;
10715;SDS011;5409;42.620;23.316;2023-06-22T14:26:29;8.68;;;7.70;;
10715;SDS011;5409;42.620;23.316;2023-06-22T14:28:56;9.82;;;8.20;;
10715;SDS011;5409;42.620;23.316;2023-06-22T14:31:23;9.07;;;8.18;;
10715;SDS011;5409;42.620;23.316;2023-06-22T14:33:50;9.27;;;8.05;;
10715;SDS011;5409;42.620;23.316;2023-06-22T14:36:18;11.73;;;9.05;;
10715;SDS011;5409;42.620;23.316;2023-06-22T14:38:45;9.73;;;8.75;;
10715;SDS011;5409;42.620;23.316;2023-06-22T14:41:12;10.43;;;9.25;;
10715;SDS011;5409;42.620;23.316;2023-06-22T14:43:43;9.77;;;8.52;;